Laranjal do Jari, Brazil
Current Conditions -  °F | °C
As of 3:00 AM on Friday 28 Nov 2014 (Local Time) from SBMQ Reporting Station
Clear Clear  
Wind Chill: 75°   Ceiling: Unl
Heat Index: 75°   Visibility: 6mi
Dew Point: 72°   Wind: 2mph
Humidity: 89%   Direction: 340°NNW
Pressure: 29.85"   Gusts: NA
Location:  1.12°S, 52°W
Report Text: SBMQ 280600Z 34002KT CAVOK 24/22 Q1011
Loading
Personal Weather Stations






























Interactive Weather Map New forecast layout! Learn more

10-Day Weather Forecast

Advertisements
Track Severe Weather on mobile